createdAt,value
2023-01-01T00:02:00.711Z,0.23
2023-01-01T00:04:28.997Z,0.20
2023-01-01T00:06:57.073Z,0.30
2023-01-01T00:09:42.460Z,0.30
2023-01-01T00:12:10.493Z,0.50
2023-01-01T00:14:39.260Z,0.43
2023-01-01T00:17:08.648Z,0.30
2023-01-01T00:19:36.698Z,0.20
2023-01-01T00:22:27.945Z,10.77
2023-01-01T00:24:52.812Z,6.93
2023-01-01T00:27:20.833Z,8.70
2023-01-01T00:29:48.939Z,8.10
2023-01-01T00:32:22.548Z,10.00
2023-01-01T00:34:51.447Z,12.13
2023-01-01T00:37:19.501Z,11.03
2023-01-01T00:39:47.560Z,9.47
2023-01-01T00:42:15.621Z,10.57
2023-01-01T00:44:43.651Z,11.60
2023-01-01T00:47:11.695Z,11.83
2023-01-01T00:49:41.114Z,14.10
2023-01-01T00:52:09.299Z,18.00
2023-01-01T00:54:37.426Z,13.90
2023-01-01T00:57:05.553Z,17.73
2023-01-01T00:59:33.622Z,13.17
2023-01-01T01:02:01.724Z,12.17
2023-01-01T01:04:29.979Z,11.87
2023-01-01T01:06:59.384Z,12.80
2023-01-01T01:09:27.555Z,14.20
2023-01-01T01:12:17.845Z,14.03
2023-01-01T01:14:43.665Z,17.40
2023-01-01T01:17:11.689Z,15.37
2023-01-01T01:19:39.779Z,13.53
2023-01-01T01:22:09.224Z,16.20
2023-01-01T01:24:37.305Z,15.70
2023-01-01T01:27:05.353Z,15.40
2023-01-01T01:29:33.411Z,18.27
2023-01-01T01:32:01.444Z,18.77
2023-01-01T01:34:29.520Z,18.50
2023-01-01T01:36:57.859Z,18.83
2023-01-01T01:39:27.256Z,16.20
2023-01-01T01:41:55.331Z,17.67
2023-01-01T01:44:56.123Z,20.70
2023-01-01T01:47:37.155Z,19.70
2023-01-01T01:50:12.722Z,21.83
2023-01-01T01:52:46.185Z,20.70
2023-01-01T01:55:15.989Z,20.33
2023-01-01T01:57:44.187Z,19.80
2023-01-01T02:00:13.838Z,20.33
2023-01-01T02:02:47.632Z,26.03
2023-01-01T02:05:16.077Z,18.63
2023-01-01T02:07:44.232Z,21.33
2023-01-01T02:10:12.521Z,19.80
2023-01-01T02:12:41.953Z,20.77
2023-01-01T02:15:10.881Z,22.53
2023-01-01T02:17:45.806Z,18.70
2023-01-01T02:20:35.350Z,18.30
2023-01-01T02:23:36.423Z,19.17
2023-01-01T02:26:38.547Z,18.80
2023-01-01T02:29:17.271Z,17.07
2023-01-01T02:31:51.326Z,17.93
2023-01-01T02:34:24.432Z,18.10
2023-01-01T02:36:55.739Z,16.97
2023-01-01T02:39:28.698Z,19.10
2023-01-01T02:41:59.287Z,18.47
2023-01-01T02:44:31.574Z,19.87
2023-01-01T02:47:08.154Z,18.70
2023-01-01T02:49:40.745Z,17.37
2023-01-01T02:52:12.816Z,18.50
2023-01-01T02:54:51.461Z,16.70
2023-01-01T02:57:32.428Z,15.57
2023-01-01T03:00:24.284Z,13.83
2023-01-01T03:03:05.020Z,14.07
2023-01-01T03:05:58.299Z,13.63
2023-01-01T03:08:31.897Z,16.00
2023-01-01T03:11:06.393Z,16.17
2023-01-01T03:13:41.108Z,13.57
2023-01-01T03:16:17.700Z,13.07
2023-01-01T03:19:10.489Z,15.87
2023-01-01T03:21:44.385Z,16.67
2023-01-01T03:24:17.998Z,18.23
2023-01-01T03:26:51.217Z,16.33
2023-01-01T03:29:19.900Z,19.90
2023-01-01T03:31:51.920Z,20.13
2023-01-01T03:34:26.712Z,23.70
2023-01-01T03:36:58.399Z,25.00
2023-01-01T03:39:32.548Z,26.20
2023-01-01T03:42:11.178Z,22.27
2023-01-01T03:44:46.763Z,22.90
2023-01-01T03:47:16.654Z,21.80
2023-01-01T03:49:45.850Z,23.03
2023-01-01T03:52:27.329Z,26.07
2023-01-01T03:55:04.776Z,24.47
2023-01-01T03:57:39.735Z,21.90
2023-01-01T04:00:16.344Z,23.63
2023-01-01T04:02:51.828Z,19.83
2023-01-01T04:05:21.123Z,23.00
2023-01-01T04:10:20.156Z,20.30
2023-01-01T04:12:50.340Z,18.23
2023-01-01T04:15:18.982Z,21.80
2023-01-01T04:17:48.613Z,17.00
2023-01-01T04:20:16.836Z,19.13
2023-01-01T04:22:45.169Z,18.47
2023-01-01T04:25:13.743Z,20.27
2023-01-01T04:27:42.732Z,20.57
2023-01-01T04:30:14.007Z,24.93
2023-01-01T04:32:42.270Z,20.50
2023-01-01T04:35:13.551Z,21.07
2023-01-01T04:37:42.350Z,16.63
2023-01-01T04:40:12.368Z,18.77
2023-01-01T04:42:40.434Z,20.87
2023-01-01T04:45:09.743Z,19.27
2023-01-01T04:47:37.749Z,17.97
2023-01-01T04:50:06.800Z,15.97
2023-01-01T04:52:36.202Z,17.03
2023-01-01T04:55:04.354Z,18.83
2023-01-01T04:57:32.642Z,19.43
2023-01-01T05:00:00.679Z,15.93
2023-01-01T05:02:28.760Z,17.27
2023-01-01T05:04:56.965Z,14.70
2023-01-01T05:07:25.039Z,15.87
2023-01-01T05:09:54.485Z,12.33
2023-01-01T05:12:22.554Z,11.10
2023-01-01T05:14:50.585Z,12.37
2023-01-01T05:17:18.565Z,14.97
2023-01-01T05:19:46.640Z,10.97
2023-01-01T05:22:14.638Z,13.23
2023-01-01T05:24:42.705Z,10.30
2023-01-01T05:27:12.081Z,11.83
2023-01-01T05:29:40.103Z,13.57
2023-01-01T05:37:04.791Z,10.33
2023-01-01T05:39:32.789Z,9.40
2023-01-01T05:42:00.894Z,6.83
2023-01-01T05:44:30.298Z,8.33
2023-01-01T05:46:58.613Z,7.00
2023-01-01T05:49:26.614Z,6.93
2023-01-01T05:51:54.683Z,8.83
2023-01-01T05:54:22.716Z,7.57
2023-01-01T05:56:50.781Z,10.10
2023-01-01T05:59:18.793Z,8.33
2023-01-01T06:01:48.183Z,8.43
2023-01-01T06:04:16.261Z,8.30
2023-01-01T06:06:44.314Z,8.90
2023-01-01T06:09:12.765Z,8.07
2023-01-01T06:11:40.808Z,8.90
2023-01-01T06:14:08.819Z,10.13
2023-01-01T06:16:36.931Z,8.60
2023-01-01T06:19:06.353Z,7.23
2023-01-01T06:21:34.562Z,7.87
2023-01-01T06:24:02.645Z,6.90
2023-01-01T06:26:33.181Z,9.33
2023-01-01T06:29:02.783Z,11.90
2023-01-01T06:31:37.033Z,8.20
2023-01-01T06:34:10.054Z,6.47
2023-01-01T06:36:38.272Z,8.13
2023-01-01T06:39:06.624Z,6.33
2023-01-01T06:41:34.823Z,7.27
2023-01-01T06:44:03.055Z,6.30
2023-01-01T06:46:32.362Z,5.97
2023-01-01T06:49:02.340Z,14.00
2023-01-01T06:51:33.718Z,5.80
2023-01-01T06:54:03.199Z,7.63
2023-01-01T06:56:32.300Z,7.27
2023-01-01T06:59:00.782Z,7.17
2023-01-01T07:01:30.714Z,10.50
2023-01-01T07:04:01.301Z,4.80
2023-01-01T07:06:32.680Z,8.27
2023-01-01T07:09:01.027Z,7.23
2023-01-01T07:11:29.663Z,9.17
2023-01-01T07:13:57.757Z,5.47
2023-01-01T07:16:26.293Z,6.67
2023-01-01T07:18:54.347Z,8.37
2023-01-01T07:21:33.082Z,6.23
2023-01-01T07:24:03.292Z,6.63
2023-01-01T07:26:32.991Z,5.30
2023-01-01T07:29:07.644Z,5.50
2023-01-01T07:31:37.823Z,7.87
2023-01-01T07:34:06.426Z,6.00
2023-01-01T07:36:35.917Z,5.33
2023-01-01T07:39:04.016Z,7.97
2023-01-01T07:41:32.091Z,5.83
2023-01-01T07:44:00.260Z,6.33
2023-01-01T07:46:29.666Z,6.13
2023-01-01T07:48:57.815Z,8.13
2023-01-01T07:51:25.967Z,4.63
2023-01-01T07:53:59.298Z,4.93
2023-01-01T07:56:30.380Z,7.60
2023-01-01T07:58:58.552Z,6.23
2023-01-01T08:01:26.682Z,8.33
2023-01-01T08:03:54.935Z,6.47
2023-01-01T08:06:22.985Z,5.10
2023-01-01T08:08:51.052Z,5.83
2023-01-01T08:11:20.478Z,6.10
2023-01-01T08:13:48.785Z,4.60
2023-01-01T08:16:16.864Z,7.07
2023-01-01T08:18:44.953Z,9.00
2023-01-01T08:21:13.161Z,6.97
2023-01-01T08:23:41.293Z,4.73
2023-01-01T08:26:14.747Z,6.30
2023-01-01T08:28:44.900Z,8.50
2023-01-01T08:31:12.979Z,10.33
2023-01-01T08:33:41.045Z,9.43
2023-01-01T08:36:11.959Z,7.83
2023-01-01T08:38:40.235Z,8.43
2023-01-01T08:41:08.293Z,8.27
2023-01-01T08:43:36.425Z,8.70
2023-01-01T08:46:06.098Z,8.33
2023-01-01T08:48:34.319Z,7.70
2023-01-01T08:51:02.703Z,5.00
2023-01-01T08:53:32.040Z,10.07
2023-01-01T08:56:01.444Z,5.53
2023-01-01T08:58:29.661Z,8.47
2023-01-01T09:00:57.798Z,6.30
2023-01-01T09:03:27.736Z,4.47
2023-01-01T09:05:56.172Z,10.20
2023-01-01T09:08:24.852Z,5.90
2023-01-01T09:10:53.729Z,6.17
2023-01-01T09:13:22.862Z,8.43
2023-01-01T09:15:51.028Z,9.00
2023-01-01T09:18:19.291Z,6.00
2023-01-01T09:20:48.711Z,6.40
2023-01-01T09:23:18.085Z,9.17
2023-01-01T09:25:46.129Z,8.80
2023-01-01T09:28:16.438Z,6.60
2023-01-01T09:30:46.196Z,9.07
2023-01-01T09:33:14.359Z,5.77
2023-01-01T09:35:44.612Z,5.80
2023-01-01T09:38:14.057Z,5.93
2023-01-01T09:40:53.483Z,6.43
2023-01-01T09:43:33.575Z,6.30
2023-01-01T09:46:03.804Z,6.97
2023-01-01T09:48:34.197Z,9.33
2023-01-01T09:51:04.471Z,11.00
2023-01-01T09:53:39.003Z,8.77
2023-01-01T09:56:12.256Z,10.03
2023-01-01T09:58:40.454Z,10.80
2023-01-01T10:01:22.073Z,11.90
2023-01-01T10:03:55.212Z,6.37
2023-01-01T10:06:25.867Z,8.23
2023-01-01T10:09:08.820Z,10.20
2023-01-01T10:11:45.915Z,7.67
2023-01-01T10:14:19.273Z,8.73
2023-01-01T10:16:50.294Z,7.40
2023-01-01T10:19:27.536Z,9.03
2023-01-01T10:22:01.013Z,4.57
2023-01-01T10:24:44.650Z,7.00
2023-01-01T10:27:23.514Z,5.83
2023-01-01T10:29:55.583Z,6.07
2023-01-01T10:32:31.652Z,9.10
2023-01-01T10:35:01.978Z,14.03
2023-01-01T10:37:36.936Z,23.83
2023-01-01T10:40:14.472Z,56.70
2023-01-01T10:42:42.493Z,10.27
2023-01-01T10:45:15.925Z,7.90
2023-01-01T10:48:11.848Z,7.80
2023-01-01T10:50:49.411Z,6.73
2023-01-01T10:53:29.958Z,4.97
2023-01-01T10:56:06.342Z,7.63
2023-01-01T10:58:40.477Z,10.77
2023-01-01T11:01:10.428Z,8.57
2023-01-01T11:03:39.416Z,7.10
2023-01-01T11:06:17.449Z,9.07
2023-01-01T11:08:50.014Z,8.13
2023-01-01T11:11:26.950Z,5.60
2023-01-01T11:13:58.430Z,10.20
2023-01-01T11:16:27.443Z,7.60
2023-01-01T11:19:03.342Z,9.03
2023-01-01T11:21:32.173Z,11.13
2023-01-01T11:24:19.238Z,8.10
2023-01-01T11:26:54.394Z,10.70
2023-01-01T11:29:27.698Z,11.30
2023-01-01T11:31:56.991Z,7.60
2023-01-01T11:34:35.149Z,15.83
2023-01-01T11:37:20.984Z,10.80
2023-01-01T11:39:50.582Z,41.57
2023-01-01T11:42:23.657Z,19.90
2023-01-01T11:44:55.006Z,12.17
2023-01-01T11:47:29.932Z,8.10
2023-01-01T11:50:03.853Z,9.30
2023-01-01T11:52:38.806Z,10.67
2023-01-01T11:55:20.778Z,9.10
2023-01-01T11:57:58.601Z,7.80
2023-01-01T12:00:26.674Z,7.90
2023-01-01T12:03:00.746Z,9.70
2023-01-01T12:05:41.927Z,8.57
2023-01-01T12:08:14.066Z,11.63
2023-01-01T12:10:49.219Z,8.80
2023-01-01T12:13:21.144Z,7.20
2023-01-01T12:15:58.204Z,7.43
2023-01-01T12:18:29.274Z,9.50
2023-01-01T12:21:00.290Z,6.43
2023-01-01T12:23:28.673Z,6.90
2023-01-01T12:26:05.394Z,25.70
2023-01-01T12:28:45.575Z,15.97
2023-01-01T12:31:21.005Z,11.17
2023-01-01T12:34:02.868Z,8.13
2023-01-01T12:36:43.437Z,7.93
2023-01-01T12:39:48.500Z,7.07
2023-01-01T12:42:24.154Z,5.90
2023-01-01T12:45:18.647Z,9.00
2023-01-01T12:47:54.217Z,13.00
2023-01-01T12:50:42.126Z,12.33
2023-01-01T12:53:26.065Z,28.60
2023-01-01T12:56:22.504Z,14.03
2023-01-01T12:58:57.236Z,10.00
2023-01-01T13:01:33.141Z,9.10
2023-01-01T13:04:03.795Z,8.83
2023-01-01T13:06:38.447Z,8.07
2023-01-01T13:09:12.032Z,11.97
2023-01-01T13:11:45.249Z,12.30
2023-01-01T13:14:14.156Z,7.03
2023-01-01T13:16:46.823Z,9.70
2023-01-01T13:19:33.938Z,5.77
2023-01-01T13:22:22.678Z,8.20
2023-01-01T13:25:05.034Z,27.97
2023-01-01T13:28:04.441Z,5.53
2023-01-01T13:30:48.506Z,7.27
2023-01-01T13:33:27.338Z,11.57
2023-01-01T13:36:32.799Z,7.37
2023-01-01T13:39:02.122Z,9.23
2023-01-01T13:41:32.285Z,6.47
2023-01-01T13:44:18.875Z,7.90
2023-01-01T13:47:03.402Z,6.50
2023-01-01T13:49:48.105Z,9.80
2023-01-01T13:52:53.890Z,6.33
2023-01-01T13:55:40.865Z,8.47
2023-01-01T13:58:29.786Z,8.83
2023-01-01T14:01:25.260Z,12.93
2023-01-01T14:03:56.937Z,15.03
2023-01-01T14:06:31.246Z,13.13
2023-01-01T14:09:04.518Z,11.27
2023-01-01T14:11:32.576Z,9.30
2023-01-01T14:14:00.713Z,8.87
2023-01-01T14:16:30.438Z,6.63
2023-01-01T14:19:03.424Z,8.33
2023-01-01T14:21:35.315Z,9.87
2023-01-01T14:24:06.173Z,8.37
2023-01-01T14:26:37.934Z,7.53
2023-01-01T14:29:09.249Z,7.23
2023-01-01T14:31:41.414Z,10.33
2023-01-01T14:34:16.889Z,9.83
2023-01-01T14:36:53.755Z,11.53
2023-01-01T14:39:28.006Z,12.47
2023-01-01T14:41:59.317Z,11.83
2023-01-01T14:44:33.878Z,9.97
2023-01-01T14:47:02.374Z,11.63
2023-01-01T14:49:34.501Z,6.07
2023-01-01T14:52:08.817Z,8.50
2023-01-01T14:54:39.870Z,4.33
2023-01-01T14:57:15.381Z,10.00
2023-01-01T14:59:48.506Z,9.97
2023-01-01T15:02:18.775Z,12.07
2023-01-01T15:04:47.227Z,11.43
2023-01-01T15:07:23.545Z,11.83
2023-01-01T15:09:53.922Z,11.37
2023-01-01T15:12:22.740Z,12.97
2023-01-01T15:14:52.810Z,8.93
2023-01-01T15:17:22.992Z,11.33
2023-01-01T15:20:02.982Z,8.53
2023-01-01T15:22:35.236Z,7.53
2023-01-01T15:25:04.135Z,10.63
2023-01-01T15:27:34.525Z,7.50
2023-01-01T15:30:07.062Z,9.13
2023-01-01T15:32:39.596Z,10.33
2023-01-01T15:35:19.361Z,10.47
2023-01-01T15:37:51.142Z,10.03
2023-01-01T15:40:34.864Z,9.40
2023-01-01T15:43:21.592Z,14.47
2023-01-01T15:45:55.266Z,10.17
2023-01-01T15:48:30.735Z,9.40
2023-01-01T15:51:08.487Z,14.03
2023-01-01T15:53:55.862Z,10.73
2023-01-01T15:56:26.441Z,6.63
2023-01-01T15:59:03.713Z,7.63
2023-01-01T16:01:37.976Z,10.73
2023-01-01T16:04:10.748Z,10.20
2023-01-01T16:06:45.148Z,12.40
2023-01-01T16:09:16.060Z,9.03
2023-01-01T16:11:44.770Z,7.90
2023-01-01T16:14:13.615Z,10.10
2023-01-01T16:16:46.479Z,8.43
2023-01-01T16:19:17.351Z,9.73
2023-01-01T16:21:45.387Z,7.73
2023-01-01T16:24:16.286Z,9.57
2023-01-01T16:26:47.620Z,8.63
2023-01-01T16:29:15.808Z,14.50
2023-01-01T16:31:44.563Z,8.63
2023-01-01T16:34:15.630Z,5.80
2023-01-01T16:36:45.098Z,12.37
2023-01-01T16:39:15.594Z,7.80
2023-01-01T16:41:45.346Z,8.63
2023-01-01T16:44:14.164Z,13.97
2023-01-01T16:46:42.727Z,15.17
2023-01-01T16:49:11.007Z,9.87
2023-01-01T16:51:43.472Z,11.53
2023-01-01T16:54:12.291Z,11.73
2023-01-01T16:56:41.801Z,8.80
2023-01-01T16:59:09.880Z,12.90
2023-01-01T17:01:38.087Z,11.83
2023-01-01T17:04:06.319Z,10.33
2023-01-01T17:06:34.893Z,11.33
2023-01-01T17:09:02.977Z,8.10
2023-01-01T17:11:31.218Z,7.40
2023-01-01T17:14:02.434Z,8.70
2023-01-01T17:16:38.332Z,9.63
2023-01-01T17:19:16.788Z,7.83
2023-01-01T17:21:45.727Z,7.30
2023-01-01T17:24:13.843Z,8.43
2023-01-01T17:26:41.937Z,12.17
2023-01-01T17:29:12.053Z,6.17
2023-01-01T17:31:40.661Z,12.20
2023-01-01T17:34:14.304Z,11.37
2023-01-01T17:36:44.872Z,8.40
2023-01-01T17:39:13.301Z,9.73
2023-01-01T17:41:41.861Z,13.30
2023-01-01T17:44:11.649Z,10.77
2023-01-01T17:46:39.909Z,12.00
2023-01-01T17:49:09.122Z,8.30
2023-01-01T17:51:37.481Z,10.97
2023-01-01T17:54:07.202Z,9.50
2023-01-01T17:56:35.502Z,10.07
2023-01-01T17:59:03.583Z,5.63
2023-01-01T18:01:35.732Z,9.57
2023-01-01T18:04:06.418Z,10.57
2023-01-01T18:06:41.343Z,12.17
2023-01-01T18:09:12.962Z,7.47
2023-01-01T18:11:42.019Z,6.30
2023-01-01T18:14:11.023Z,6.93
2023-01-01T18:16:42.737Z,13.97
2023-01-01T18:19:10.879Z,14.63
2023-01-01T18:21:39.056Z,9.73
2023-01-01T18:24:11.995Z,9.40
2023-01-01T18:26:40.144Z,41.97
2023-01-01T18:29:08.625Z,54.77
2023-01-01T18:31:37.162Z,65.47
2023-01-01T18:34:06.974Z,40.33
2023-01-01T18:36:36.170Z,20.30
2023-01-01T18:39:14.169Z,12.17
2023-01-01T18:41:56.953Z,14.97
2023-01-01T18:44:26.455Z,11.60
2023-01-01T18:46:57.664Z,13.27
2023-01-01T18:49:27.523Z,13.87
2023-01-01T18:51:58.756Z,12.27
2023-01-01T18:54:26.940Z,12.07
2023-01-01T18:57:06.853Z,9.17
2023-01-01T18:59:39.632Z,10.00
2023-01-01T19:02:24.102Z,9.63
2023-01-01T19:04:53.876Z,12.30
2023-01-01T19:07:21.882Z,8.87
2023-01-01T19:09:55.597Z,14.40
2023-01-01T19:12:28.526Z,13.50
2023-01-01T19:14:57.608Z,13.30
2023-01-01T19:17:25.671Z,9.43
2023-01-01T19:19:55.186Z,14.40
2023-01-01T19:22:30.081Z,14.10
2023-01-01T19:24:58.401Z,19.93
2023-01-01T19:27:27.147Z,18.20
2023-01-01T19:29:55.861Z,13.90
2023-01-01T19:35:50.679Z,17.47
2023-01-01T19:44:11.343Z,8.93
2023-01-01T19:55:09.147Z,11.63
2023-01-01T19:57:37.242Z,9.07
2023-01-01T20:03:19.315Z,13.80
2023-01-01T20:15:27.615Z,7.73
2023-01-01T20:18:00.764Z,20.43
2023-01-01T20:23:10.765Z,9.07
2023-01-01T20:25:54.370Z,12.20
2023-01-01T20:28:40.157Z,8.43
2023-01-01T20:31:09.556Z,10.93
2023-01-01T20:33:37.699Z,9.13
2023-01-01T20:39:06.599Z,16.63
2023-01-01T20:47:43.317Z,9.83
2023-01-01T20:50:11.633Z,7.90
2023-01-01T20:52:44.069Z,10.00
2023-01-01T20:55:23.247Z,8.73
2023-01-01T20:57:52.260Z,10.47
2023-01-01T21:00:20.537Z,11.67
2023-01-01T21:11:13.362Z,6.63
2023-01-01T21:13:45.426Z,8.93
2023-01-01T21:16:19.320Z,9.40
2023-01-01T21:18:58.474Z,7.60
2023-01-01T21:21:29.144Z,8.83
2023-01-01T21:24:02.559Z,12.33
2023-01-01T21:26:36.120Z,8.27
2023-01-01T21:29:09.149Z,11.83
2023-01-01T21:31:43.699Z,13.33
2023-01-01T21:34:26.204Z,12.83
2023-01-01T21:36:57.659Z,8.43
2023-01-01T21:39:30.658Z,11.13
2023-01-01T21:42:15.967Z,11.07
2023-01-01T21:44:44.021Z,10.40
2023-01-01T21:47:23.319Z,8.40
2023-01-01T21:49:55.704Z,10.70
2023-01-01T21:52:25.859Z,8.17
2023-01-01T21:54:55.723Z,7.90
2023-01-01T21:57:25.701Z,9.73
2023-01-01T21:59:54.947Z,10.87
2023-01-01T22:02:34.781Z,13.73
2023-01-01T22:05:29.724Z,27.57
2023-01-01T22:07:59.332Z,86.77
2023-01-01T22:10:32.411Z,24.20
2023-01-01T22:13:01.545Z,11.77
2023-01-01T22:15:36.217Z,12.60
2023-01-01T22:18:24.267Z,8.90
2023-01-01T22:20:53.867Z,5.90
2023-01-01T22:23:34.788Z,7.53
2023-01-01T22:26:05.625Z,11.77
2023-01-01T22:28:41.607Z,8.40
2023-01-01T22:31:13.331Z,8.30
2023-01-01T22:33:46.069Z,10.43
2023-01-01T22:36:18.075Z,7.80
2023-01-01T22:38:46.620Z,10.87
2023-01-01T22:41:16.005Z,8.43
2023-01-01T22:43:47.269Z,6.27
2023-01-01T22:46:30.160Z,17.43
2023-01-01T22:49:01.232Z,10.00
2023-01-01T22:51:41.648Z,11.17
2023-01-01T22:54:09.913Z,9.57
2023-01-01T22:56:38.484Z,7.40
2023-01-01T22:59:07.771Z,8.60
2023-01-01T23:01:37.081Z,11.33
2023-01-01T23:04:06.695Z,7.77
2023-01-01T23:06:39.888Z,10.40
2023-01-01T23:09:11.243Z,8.97
2023-01-01T23:11:40.581Z,8.57
2023-01-01T23:14:22.805Z,12.53
2023-01-01T23:16:52.094Z,8.57
2023-01-01T23:19:22.161Z,11.43
2023-01-01T23:21:53.315Z,8.07
2023-01-01T23:24:27.997Z,8.50
2023-01-01T23:26:56.538Z,8.63
2023-01-01T23:29:25.761Z,11.17
2023-01-01T23:31:54.267Z,6.47
2023-01-01T23:34:22.736Z,12.30
2023-01-01T23:36:54.436Z,18.13
2023-01-01T23:39:23.100Z,10.03
2023-01-01T23:41:51.649Z,7.10
2023-01-01T23:44:19.680Z,8.77
2023-01-01T23:46:47.890Z,11.77
2023-01-01T23:49:16.603Z,10.13
2023-01-01T23:51:45.211Z,10.53
2023-01-01T23:54:15.096Z,8.60
2023-01-01T23:56:43.235Z,11.23
2023-01-01T23:59:11.970Z,6.93
